Data for 01/14/2014

Time Sea-Level Adjusted Pressure Absolute Pressure Temperature Relative Humidity Dew Point   
(mb) (inHg) (mb) (inHg) (C) (F) (%) (C) (F)
00:05 1024 30.24 853 25.19 0.5 32.9 81 -2.4 27.7
00:10 1024 30.24 853 25.19 0.3 32.6 81 -2.5 27.4
00:15 1024 30.24 853 25.19 0.2 32.3 81 -2.6 27.2
00:20 1024 30.24 853 25.19 0.1 32.1 81 -2.8 27
00:25 1024 30.24 853 25.19 -0 32 82 -2.8 27
00:30 1024 30.24 853 25.19 -0.1 31.8 82 -2.9 26.8
00:35 1024 30.24 853 25.19 -0.1 31.8 81 -2.9 26.7
00:40 1024 30.24 853 25.19 -0.2 31.7 82 -2.8 26.9
00:45 1024 30.24 853 25.19 -0.5 31.2 85 -2.8 27
00:50 1024 30.24 854 25.22 -0.7 30.7 86 -2.9 26.9
00:55 1024 30.24 854 25.22 -0.9 30.4 86 -2.9 26.8
01:00 1024 30.24 854 25.22 -1 30.2 87 -3 26.7
01:05 1024 30.24 853 25.19 -1.1 30.1 87 -3 26.5
01:10 1024 30.24 854 25.22 -1.1 30 87 -3.1 26.5
01:15 1024 30.24 854 25.22 -1.1 30 86 -3.1 26.4
01:20 1024 30.24 854 25.22 -1 30.2 86 -3.1 26.5
01:25 1025 30.27 854 25.22 -1 30.2 86 -3.1 26.4
01:30 1025 30.27 854 25.22 -1 30.3 85 -3.1 26.4
01:35 1025 30.27 854 25.22 -0.9 30.4 84 -3.2 26.3
01:40 1025 30.27 854 25.22 -0.8 30.6 84 -3.1 26.3
01:45 1025 30.27 854 25.22 -0.8 30.6 84 -3.2 26.2
01:50 1025 30.27 854 25.22 -0.8 30.6 83 -3.3 26.1
01:55 1025 30.27 854 25.22 -0.8 30.5 84 -3.3 26.1
02:00 1025 30.27 854 25.22 -0.8 30.5 83 -3.3 26
02:05 1025 30.27 854 25.22 -0.8 30.6 83 -3.3 26.1
02:10 1025 30.27 854 25.22 -0.8 30.6 83 -3.3 26
02:15 1025 30.27 854 25.22 -0.7 30.7 82 -3.4 25.9
02:20 1025 30.27 854 25.22 -0.6 30.9 82 -3.4 25.9
02:25 1025 30.27 854 25.22 -0.6 30.9 82 -3.3 26.1
02:30 1025 30.27 854 25.22 -0.8 30.6 82 -3.4 25.9
02:35 1025 30.27 854 25.22 -0.8 30.6 82 -3.5 25.8
02:40 1025 30.27 854 25.22 -0.8 30.6 82 -3.5 25.8
02:45 1025 30.27 854 25.22 -0.8 30.5 82 -3.5 25.8
02:50 1025 30.27 855 25.25 -0.8 30.5 82 -3.5 25.7
02:55 1025 30.27 855 25.25 -0.7 30.7 82 -3.5 25.7
03:00 1025 30.27 855 25.25 -0.9 30.5 83 -3.4 25.8
03:05 1025 30.27 854 25.22 -1.1 30 83 -3.6 25.5
03:10 1025 30.27 855 25.25 -1.2 29.9 83 -3.7 25.3
03:15 1026 30.3 855 25.25 -1.1 30.1 82 -3.7 25.3
03:20 1026 30.3 855 25.25 -1 30.2 81 -3.9 25
03:25 1026 30.3 855 25.25 -0.9 30.4 79 -4 24.7
03:30 1026 30.3 855 25.25 -0.8 30.6 78 -4.1 24.6
03:35 1026 30.3 855 25.25 -0.6 30.9 76 -4.3 24.3
03:40 1026 30.3 855 25.25 -0.5 31.2 75 -4.3 24.3
03:45 1026 30.3 855 25.25 -0.4 31.3 75 -4.3 24.2
03:50 1026 30.3 855 25.25 -0.3 31.5 74 -4.4 24
03:55 1026 30.3 856 25.28 -0.2 31.7 72 -4.7 23.6
04:00 1026 30.3 856 25.28 -0.1 31.9 71 -4.8 23.4
04:05 1026 30.3 856 25.28 0 32.1 71 -4.7 23.6
04:10 1026 30.3 856 25.28 0.2 32.3 70 -4.7 23.6
04:15 1027 30.33 856 25.28 0.2 32.4 70 -4.6 23.7
04:20 1027 30.33 856 25.28 0.3 32.5 69 -4.7 23.5
04:25 1027 30.33 856 25.28 0.4 32.7 68 -4.8 23.3
04:30 1026 30.3 856 25.28 0.5 32.8 67 -4.9 23.2
04:35 1026 30.3 856 25.28 0.6 33.1 65 -5.3 22.5
04:40 1027 30.33 856 25.28 0.9 33.6 65 -4.9 23.2
04:45 1027 30.33 856 25.28 0.8 33.4 66 -4.9 23.1
04:50 1027 30.33 856 25.28 0.8 33.4 64 -5.2 22.7
04:55 1027 30.33 856 25.28 0.8 33.5 65 -5.1 22.8
05:00 1027 30.33 856 25.28 0.8 33.5 64 -5.2 22.6
05:05 1027 30.33 856 25.28 0.9 33.7 64 -5.2 22.6
05:10 1027 30.33 856 25.28 0.9 33.7 65 -5 23
05:15 1027 30.33 856 25.28 0.9 33.6 65 -5 23.1
05:20 1027 30.33 856 25.28 0.9 33.6 64 -5.2 22.6
05:25 1027 30.33 856 25.28 1 33.9 63 -5.2 22.7
05:30 1027 30.33 856 25.28 1.2 34.1 62 -5.2 22.6
05:35 1027 30.33 856 25.28 1.2 34.2 62 -5.2 22.6
05:40 1027 30.33 856 25.28 1.2 34.1 62 -5.2 22.6
05:45 1027 30.33 856 25.28 1.2 34.2 62 -5.3 22.5
05:50 1027 30.33 856 25.28 1.3 34.4 62 -5.3 22.5
05:55 1027 30.33 856 25.28 1.4 34.5 61 -5.3 22.5
06:00 1027 30.33 857 25.31 1.3 34.4 62 -5.2 22.7
06:05 1027 30.33 857 25.31 1.3 34.3 62 -5.1 22.7
06:10 1028 30.36 857 25.31 1.3 34.3 63 -5.1 22.8
06:15 1028 30.36 857 25.31 1.3 34.3 62 -5.2 22.7
06:20 1028 30.36 857 25.31 1.3 34.4 61 -5.5 22.2
06:25 1028 30.36 857 25.31 1.5 34.7 59 -5.6 22
06:30 1028 30.36 857 25.31 1.7 35 60 -5.4 22.3
06:35 1028 30.36 857 25.31 1.7 35 59 -5.5 22.1
06:40 1028 30.36 857 25.31 1.7 35.1 59 -5.5 22.1
06:45 1028 30.36 857 25.31 1.7 35.1 59 -5.4 22.3
06:50 1028 30.36 857 25.31 1.7 35 61 -5 23
06:55 1028 30.36 857 25.31 1.5 34.6 61 -5.2 22.6
07:00 1028 30.36 857 25.31 1.6 34.8 59 -5.5 22.1
07:05 1028 30.36 857 25.31 1.6 34.9 62 -5 23.1
07:10 1028 30.36 857 25.31 1.4 34.6 61 -5.2 22.6
07:15 1028 30.36 857 25.31 1.5 34.7 62 -5.1 22.9
07:20 1028 30.36 857 25.31 1.6 34.9 60 -5.4 22.3
07:25 1028 30.36 857 25.31 1.6 34.9 62 -5 23.1
07:30 1028 30.36 857 25.31 1.6 34.8 61 -5.1 22.8
07:35 1028 30.36 857 25.31 1.5 34.8 63 -4.8 23.4
07:40 1028 30.36 857 25.31 1.4 34.5 63 -4.9 23.2
07:45 1028 30.36 857 25.31 1.4 34.5 62 -5 23
07:50 1028 30.36 857 25.31 1.5 34.7 61 -5.2 22.7
07:55 1028 30.36 857 25.31 1.7 35.1 61 -5 23
08:00 1028 30.36 857 25.31 1.8 35.3 60 -5.1 22.8
08:05 1028 30.36 857 25.31 1.9 35.3 60 -5.1 22.8
08:10 1028 30.36 857 25.31 1.8 35.3 61 -4.9 23.1
08:15 1028 30.36 857 25.31 1.7 35.1 61 -5 23.1
08:20 1028 30.36 857 25.31 1.4 34.6 63 -4.8 23.4
08:25 1028 30.36 857 25.31 1.4 34.5 62 -5.2 22.7
08:30 1028 30.36 857 25.31 1.6 34.9 61 -5 22.9
08:35 1028 30.36 857 25.31 1.7 35 62 -4.9 23.2
08:40 1028 30.36 858 25.34 1.7 35 61 -5.1 22.8
08:45 1028 30.36 857 25.31 1.8 35.2 61 -4.9 23.2
08:50 1028 30.36 857 25.31 1.7 35.1 62 -4.9 23.2
08:55 1028 30.36 858 25.34 1.5 34.6 63 -4.8 23.4
09:00 1028 30.36 858 25.34 1.5 34.7 62 -5 23
09:05 1028 30.36 858 25.34 1.6 34.8 61 -5.2 22.7
09:10 1029 30.39 858 25.34 1.8 35.2 59 -5.5 22.1
09:15 1029 30.39 858 25.34 2.1 35.7 57 -5.6 22
09:20 1029 30.39 858 25.34 2.2 35.9 57 -5.5 22.1
09:25 1029 30.39 858 25.34 2.3 36.1 56 -5.6 21.9
09:30 1029 30.39 858 25.34 2.3 36.2 56 -5.6 22
09:35 1029 30.39 858 25.34 2.3 36.2 56 -5.6 21.9
09:40 1029 30.39 858 25.34 2.4 36.2 55 -5.7 21.8
09:45 1029 30.39 858 25.34 2.4 36.3 56 -5.5 22
09:50 1029 30.39 859 25.37 2.4 36.3 55 -5.7 21.7
09:55 1030 30.42 859 25.37 2.4 36.4 55 -5.8 21.6
10:00 1030 30.42 859 25.37 2.5 36.5 55 -5.7 21.7
10:05 1030 30.42 859 25.37 2.5 36.5 55 -5.6 21.9
10:10 1030 30.42 859 25.37 2.5 36.5 56 -5.5 22.1
10:15 1030 30.42 859 25.37 2.4 36.3 56 -5.4 22.2
10:20 1030 30.42 859 25.37 2.3 36.2 56 -5.6 21.9
10:25 1030 30.42 859 25.37 2.3 36.1 56 -5.7 21.7
10:30 1030 30.42 859 25.37 2.3 36.2 56 -5.5 22.1
10:35 1030 30.42 859 25.37 2.4 36.3 56 -5.6 22
10:40 1030 30.42 859 25.37 2.4 36.4 56 -5.5 22
10:45 1030 30.42 859 25.37 2.5 36.5 56 -5.5 22.1
10:50 1030 30.42 859 25.37 2.5 36.5 56 -5.5 22.2
10:55 1030 30.42 859 25.37 2.6 36.7 55 -5.6 22
11:00 1030 30.42 860 25.4 2.8 37 55 -5.4 22.2
11:05 1030 30.42 860 25.4 2.9 37.2 54 -5.5 22
11:10 1030 30.42 860 25.4 2.9 37.3 54 -5.5 22
11:15 1030 30.42 860 25.4 2.9 37.2 54 -5.6 21.9
11:20 1030 30.42 860 25.4 3 37.3 54 -5.6 22
11:25 1030 30.42 860 25.4 3.1 37.5 53 -5.6 21.8
11:30 1031 30.45 860 25.4 3.1 37.6 53 -5.5 22.1
11:35 1031 30.45 860 25.4 2.9 37.2 55 -5.3 22.4
11:40 1031 30.45 860 25.4 2.8 37.1 55 -5.4 22.3
11:45 1031 30.45 860 25.4 3 37.4 54 -5.5 22.1
11:50 1031 30.45 860 25.4 3.2 37.8 54 -5.2 22.7
11:55 1031 30.45 860 25.4 3.4 38.2 52 -5.5 22
12:00 1031 30.45 860 25.4 3.5 38.3 52 -5.5 22.1
12:05 1031 30.45 860 25.4 3.7 38.7 52 -5.3 22.5
12:10 1031 30.45 860 25.4 3.7 38.7 51 -5.5 22.1
12:15 1031 30.45 860 25.4 3.6 38.5 50 -5.8 21.6
12:20 1031 30.45 860 25.4 3.4 38.2 51 -5.6 21.8
12:25 1030 30.42 860 25.4 3.4 38.1 51 -5.9 21.4
12:30 1030 30.42 860 25.4 3.5 38.3 50 -5.9 21.3
12:35 1030 30.42 860 25.4 3.6 38.5 51 -5.5 22
12:40 1030 30.42 860 25.4 3.9 39.1 49 -5.8 21.6
12:45 1030 30.42 860 25.4 4.3 39.8 48 -5.7 21.8
12:50 1030 30.42 860 25.4 4.6 40.2 48 -5.5 22
12:55 1030 30.42 859 25.37 5.1 41.2 44 -6.1 21
13:00 1030 30.42 859 25.37 5.9 42.6 41 -6.2 20.8
13:05 1030 30.42 859 25.37 6.1 42.9 41 -6.1 20.9
13:10 1030 30.42 859 25.37 6 42.7 42 -6 21.1
13:15 1030 30.42 859 25.37 5.8 42.4 42 -6.3 20.7
13:20 1030 30.42 859 25.37 5.6 42.1 43 -6 21.2
13:25 1030 30.42 859 25.37 5.6 42.2 42 -6.2 20.8
13:30 1030 30.42 859 25.37 5.4 41.7 44 -6 21.2
13:35 1030 30.42 859 25.37 5.3 41.6 43 -6.2 20.9
13:40 1029 30.39 859 25.37 5.8 42.4 42 -6.2 20.8
13:45 1029 30.39 859 25.37 6.3 43.3 40 -6.2 20.8
13:50 1029 30.39 859 25.37 6.5 43.7 40 -6.2 20.9
13:55 1029 30.39 859 25.37 6.7 44 41 -5.8 21.6
14:00 1029 30.39 859 25.37 6.5 43.6 40 -6.1 21
14:05 1029 30.39 858 25.34 6.4 43.5 39 -6.4 20.5
14:10 1029 30.39 858 25.34 6.6 43.9 40 -6.2 20.8
14:15 1029 30.39 858 25.34 6.7 44.1 39 -6.3 20.6
14:20 1029 30.39 858 25.34 6.9 44.5 37 -6.7 19.9
14:25 1029 30.39 859 25.37 7 44.6 37 -6.8 19.8
14:30 1029 30.39 859 25.37 7.3 45.1 37 -6.3 20.7
14:35 1030 30.42 859 25.37 7.2 44.9 37 -6.5 20.2
14:40 1030 30.42 859 25.37 6.9 44.4 36 -7.2 19.1
14:45 1030 30.42 859 25.37 7.3 45.1 36 -6.6 20.1
14:50 1030 30.42 859 25.37 7.3 45.1 38 -6 21.3
14:55 1030 30.42 859 25.37 6.7 44 40 -5.9 21.3
15:00 1030 30.42 859 25.37 6.2 43.2 42 -5.6 21.9
15:05 1030 30.42 859 25.37 6.1 42.9 41 -6.1 20.9
15:10 1029 30.39 858 25.34 6 42.8 41 -6.2 20.9
15:15 1029 30.39 859 25.37 5.9 42.5 42 -5.9 21.3
15:20 1029 30.39 859 25.37 5.8 42.4 43 -5.8 21.5
15:25 1029 30.39 859 25.37 5.8 42.4 44 -5.6 21.9
15:30 1029 30.39 859 25.37 5.7 42.3 44 -5.7 21.8
15:35 1029 30.39 858 25.34 5.7 42.3 43 -5.9 21.3
15:40 1029 30.39 858 25.34 5.8 42.4 42 -6.2 20.8
15:45 1029 30.39 858 25.34 5.8 42.4 41 -6.3 20.6
15:50 1029 30.39 858 25.34 5.8 42.5 42 -6.2 20.9
15:55 1029 30.39 858 25.34 5.8 42.4 43 -6 21.2
16:00 1029 30.39 858 25.34 5.8 42.4 43 -5.9 21.3
16:05 1029 30.39 858 25.34 5.7 42.3 44 -5.7 21.8
16:10 1029 30.39 858 25.34 5.7 42.2 44 -5.6 22
16:15 1029 30.39 858 25.34 5.7 42.2 44 -5.7 21.8
16:20 1029 30.39 858 25.34 5.7 42.3 44 -5.5 22.1
16:25 1029 30.39 858 25.34 5.7 42.2 44 -5.7 21.8
16:30 1029 30.39 858 25.34 5.7 42.2 44 -5.6 21.9
16:35 1029 30.39 858 25.34 5.6 42.2 45 -5.5 22.2
16:40 1029 30.39 858 25.34 5.7 42.2 44 -5.7 21.7
16:45 1029 30.39 858 25.34 5.8 42.4 44 -5.7 21.8
16:50 1029 30.39 858 25.34 5.8 42.4 45 -5.4 22.3
16:55 1029 30.39 858 25.34 5.7 42.3 45 -5.3 22.4
17:00 1029 30.39 858 25.34 5.7 42.2 46 -5.1 22.8
17:05 1029 30.39 858 25.34 5.8 42.4 45 -5.2 22.7
17:10 1029 30.39 858 25.34 5.9 42.6 46 -4.9 23.3
17:15 1029 30.39 858 25.34 5.9 42.6 45 -5.1 22.8
17:20 1029 30.39 858 25.34 5.8 42.4 45 -5.2 22.6
17:25 1029 30.39 858 25.34 5.9 42.6 46 -4.7 23.5
17:30 1029 30.39 858 25.34 5.7 42.3 46 -5 23
17:35 1029 30.39 858 25.34 5.6 42 46 -5.2 22.6
17:40 1029 30.39 858 25.34 5.5 41.8 48 -4.7 23.5
17:45 1029 30.39 858 25.34 5.4 41.6 47 -4.9 23.1
17:50 1029 30.39 858 25.34 5.4 41.6 47 -5.2 22.7
17:55 1029 30.39 858 25.34 5.6 42 45 -5.4 22.2
18:00 1029 30.39 858 25.34 5.5 41.9 45 -5.4 22.3
18:05 1029 30.39 858 25.34 5.5 41.8 45 -5.5 22.1
18:10 1029 30.39 858 25.34 5.5 41.8 44 -5.9 21.4
18:15 1029 30.39 858 25.34 5.5 41.9 44 -5.6 21.9
18:20 1029 30.39 858 25.34 5.4 41.7 45 -5.6 21.8
18:25 1029 30.39 858 25.34 5.3 41.5 45 -5.6 22
18:30 1029 30.39 858 25.34 5.2 41.4 45 -5.8 21.6
18:35 1029 30.39 858 25.34 5.2 41.3 46 -5.6 21.9
18:40 1029 30.39 858 25.34 5.1 41.2 46 -5.4 22.2
18:45 1029 30.39 858 25.34 5 40.9 48 -5.1 22.9
18:50 1029 30.39 858 25.34 4.9 40.8 49 -5 22.9
18:55 1029 30.39 858 25.34 4.8 40.6 50 -4.8 23.3
19:00 1029 30.39 858 25.34 4.5 40.1 52 -4.6 23.7
19:05 1029 30.39 858 25.34 4.2 39.5 52 -4.7 23.5
19:10 1029 30.39 858 25.34 4.1 39.5 52 -4.8 23.4
19:15 1029 30.39 858 25.34 4.1 39.3 52 -4.9 23.1
19:20 1029 30.39 858 25.34 4.1 39.4 54 -4.4 24
19:25 1029 30.39 858 25.34 4.1 39.4 50 -5.4 22.3
19:30 1029 30.39 858 25.34 4.2 39.6 53 -4.6 23.8
19:35 1029 30.39 858 25.34 4 39.3 53 -4.6 23.7
19:40 1029 30.39 858 25.34 3.9 39 53 -4.9 23.2
19:45 1029 30.39 858 25.34 3.9 39.1 53 -4.7 23.5
19:50 1029 30.39 858 25.34 3.9 39 50 -5.5 22.1
19:55 1029 30.39 858 25.34 3.9 39 51 -5.3 22.5
20:00 1029 30.39 858 25.34 4 39.1 52 -5 22.9
20:05 1029 30.39 858 25.34 4 39.1 54 -4.6 23.6
20:10 1029 30.39 858 25.34 3.8 38.9 54 -4.6 23.7
20:15 1029 30.39 858 25.34 3.7 38.7 54 -4.6 23.6
20:20 1028 30.36 858 25.34 3.7 38.6 54 -4.8 23.3
20:25 1028 30.36 858 25.34 3.7 38.6 55 -4.6 23.7
20:30 1028 30.36 857 25.31 3.6 38.5 56 -4.3 24.2
20:35 1028 30.36 857 25.31 3.4 38.2 58 -4.1 24.5
20:40 1028 30.36 857 25.31 3.2 37.8 56 -4.6 23.7
20:45 1028 30.36 857 25.31 3.3 38 54 -5 23
20:50 1028 30.36 857 25.31 3.5 38.3 55 -4.7 23.6
20:55 1028 30.36 857 25.31 3.4 38.2 56 -4.6 23.8
21:00 1028 30.36 857 25.31 3.3 38 55 -4.9 23.3
21:05 1028 30.36 857 25.31 3.4 38.2 55 -4.9 23.3
21:10 1028 30.36 857 25.31 3.4 38.1 56 -4.5 23.9
21:15 1028 30.36 857 25.31 3.3 37.9 53 -5.4 22.3
21:20 1028 30.36 857 25.31 3.6 38.5 52 -5.4 22.3
21:25 1028 30.36 857 25.31 3.8 38.8 51 -5.3 22.4
21:30 1028 30.36 857 25.31 3.9 39 52 -5.1 22.8
21:35 1028 30.36 857 25.31 3.9 38.9 51 -5.2 22.6
21:40 1028 30.36 857 25.31 3.9 39 51 -5.3 22.5
21:45 1028 30.36 857 25.31 3.8 38.8 52 -5.3 22.5
21:50 1028 30.36 857 25.31 3.7 38.6 53 -5.1 22.9
21:55 1028 30.36 857 25.31 3.6 38.5 54 -4.9 23.2
22:00 1028 30.36 857 25.31 3.4 38.1 55 -4.9 23.2
22:05 1028 30.36 857 25.31 3.3 38 53 -5.3 22.5
22:10 1028 30.36 857 25.31 3.5 38.2 53 -5.2 22.6
22:15 1028 30.36 857 25.31 3.5 38.3 53 -5.2 22.6
22:20 1028 30.36 857 25.31 3.6 38.5 53 -5.2 22.6
22:25 1028 30.36 857 25.31 3.5 38.3 53 -5.2 22.6
22:30 1028 30.36 857 25.31 3.5 38.3 52 -5.4 22.2
22:35 1028 30.36 857 25.31 3.6 38.4 53 -5.2 22.7
22:40 1028 30.36 857 25.31 3.5 38.3 53 -5.1 22.8
22:45 1028 30.36 857 25.31 3.2 37.8 55 -5 23
22:50 1028 30.36 857 25.31 3 37.4 54 -5.4 22.3
22:55 1028 30.36 857 25.31 3 37.5 54 -5.4 22.3
23:00 1028 30.36 857 25.31 3.1 37.5 54 -5.5 22.2
23:05 1028 30.36 857 25.31 3.1 37.5 54 -5.3 22.4
23:10 1028 30.36 857 25.31 3 37.3 54 -5.5 22.1
23:15 1027 30.33 857 25.31 3 37.4 53 -5.6 21.9
23:20 1027 30.33 857 25.31 2.8 37.1 55 -5.3 22.4
23:25 1027 30.33 857 25.31 2.5 36.5 55 -5.6 21.9
23:30 1027 30.33 857 25.31 2.3 36.2 56 -5.6 21.9
23:35 1027 30.33 857 25.31 2.1 35.8 55 -5.9 21.3
23:40 1027 30.33 857 25.31 2.3 36.1 55 -5.9 21.4
23:45 1027 30.33 857 25.31 2.5 36.5 53 -6.1 21.1
23:50 1027 30.33 856 25.28 2.8 37.1 52 -6.2 20.9
23:55 1027 30.33 856 25.28 2.7 36.9 54 -5.7 21.8
24:00 1027 30.33 856 25.28 2.4 36.3 53 -6.3 20.7